Newton, KS (67114)

3:19 AM CDT on September 01, 2015 (GMT -0500)
Downtown Newton | | Change Station
CLOSE
Current Station
Personal Weather Station
Location: Newton, KS
Elevation: 1445 ft
Nearby Weather Stations

Elev 1445 ft 38.04 °N, 97.34 °W | Updated 6 seconds ago

Clear
Clear
74.1 °F
Feels Like 75 °F
N
1.2
Wind Variable Wind from SE
Gusts 1.2 mph

Today
High -- | Low -- °F
--% Chance of Precip.
Yesterday
High -- | Low -- °F
Precip. -- in
6:59 AM 7:59 PM
Waning Gibbous, 90% visible
Pressure 30.01 in
Visibility 10.0 miles
Clouds Clear
Heat Index 75 °F
Dew Point 65 °F
Humidity 74%
Rainfall 0.00 in
Snow Depth Not available.
UV 0 out of 12
Pollen 11.10 out of 12
Air Quality Not available.
Flu Activity Not available.
METAR KEWK 010815Z AUTO 19010KT 10SM CLR 23/16 A3001 RMK AO1
Pressure 30.01 in
Visibility 10.0 miles
Clouds Clear
Heat Index 75 °F
Dew Point 65 °F
Humidity 74%
Rainfall 0.00 in
Snow Depth Not available.
UV 0 out of 12
Pollen 11.10 out of 12
Air Quality Not available.
Flu Activity Not available.
METAR KEWK 010815Z AUTO 19010KT 10SM CLR 23/16 A3001 RMK AO1

10-Day Weather Forecast

×

Almanac

Astronomy

Sep. 01, 2015 Rise Set
Actual Time
Civil Twilight
Nautical Twilight
Astronomical Twilight
Moon
Length of Visible Light
Length of Day
Tomorrow will be .
, % of the Moon is Illuminated

Today's Extremes

State Highs State Lows

Community

WunderPhotos

Upload Photos

1,851,490 photos uploaded!

WunderBlogs® & News

Nearby

Air Quality

  Air Quality AQ Index Pollutant
Not available.

Snow Depth

Station Depth Elevation

Earthquake Activity

City Distance Mag. Time & Date
Minimum magnitude displayed is 2.5.

Coastal Water Temperatures

Place Temperature

Stations

Nearby Weather Stations

Station Location Temp. Windchill Dew Point Humidity Wind Precip. Elev Updated Type